sensor_id;sensor_type;location;lat;lon;timestamp;P1;durP1;ratioP1;P2;durP2;ratioP2
11344;SDS011;5727;42.600;23.028;2023-04-30T00:00:37;11.27;;;8.30;;
11344;SDS011;5727;42.600;23.028;2023-04-30T00:03:04;15.73;;;9.80;;
11344;SDS011;5727;42.600;23.028;2023-04-30T00:05:32;11.70;;;8.83;;
11344;SDS011;5727;42.600;23.028;2023-04-30T00:07:59;11.10;;;8.37;;
11344;SDS011;5727;42.600;23.028;2023-04-30T00:10:26;13.23;;;9.27;;
11344;SDS011;5727;42.600;23.028;2023-04-30T00:12:52;12.63;;;9.00;;
11344;SDS011;5727;42.600;23.028;2023-04-30T00:15:19;11.03;;;8.93;;
11344;SDS011;5727;42.600;23.028;2023-04-30T00:17:46;12.60;;;9.23;;
11344;SDS011;5727;42.600;23.028;2023-04-30T00:20:12;12.63;;;8.93;;
11344;SDS011;5727;42.600;23.028;2023-04-30T00:22:40;10.53;;;8.87;;
11344;SDS011;5727;42.600;23.028;2023-04-30T00:25:07;12.10;;;8.53;;
11344;SDS011;5727;42.600;23.028;2023-04-30T00:27:34;14.60;;;9.20;;
11344;SDS011;5727;42.600;23.028;2023-04-30T00:30:01;12.40;;;8.53;;
11344;SDS011;5727;42.600;23.028;2023-04-30T00:32:28;13.13;;;9.10;;
11344;SDS011;5727;42.600;23.028;2023-04-30T00:34:54;10.20;;;8.40;;
11344;SDS011;5727;42.600;23.028;2023-04-30T00:37:21;10.40;;;8.57;;
11344;SDS011;5727;42.600;23.028;2023-04-30T00:39:49;11.70;;;8.67;;
11344;SDS011;5727;42.600;23.028;2023-04-30T00:42:16;14.07;;;8.90;;
11344;SDS011;5727;42.600;23.028;2023-04-30T00:44:42;16.47;;;9.67;;
11344;SDS011;5727;42.600;23.028;2023-04-30T00:47:09;14.13;;;8.67;;
11344;SDS011;5727;42.600;23.028;2023-04-30T00:49:36;13.03;;;9.10;;
11344;SDS011;5727;42.600;23.028;2023-04-30T00:52:03;12.10;;;9.30;;
11344;SDS011;5727;42.600;23.028;2023-04-30T00:54:30;13.00;;;9.53;;
11344;SDS011;5727;42.600;23.028;2023-04-30T00:56:58;12.60;;;9.60;;
11344;SDS011;5727;42.600;23.028;2023-04-30T00:59:25;13.83;;;9.37;;
11344;SDS011;5727;42.600;23.028;2023-04-30T01:01:54;13.27;;;9.30;;
11344;SDS011;5727;42.600;23.028;2023-04-30T01:04:20;13.77;;;9.03;;
11344;SDS011;5727;42.600;23.028;2023-04-30T01:06:47;17.07;;;10.57;;
11344;SDS011;5727;42.600;23.028;2023-04-30T01:09:14;14.73;;;10.67;;
11344;SDS011;5727;42.600;23.028;2023-04-30T01:11:44;17.17;;;10.30;;
11344;SDS011;5727;42.600;23.028;2023-04-30T01:14:20;16.30;;;10.23;;
11344;SDS011;5727;42.600;23.028;2023-04-30T01:16:56;14.93;;;10.07;;
11344;SDS011;5727;42.600;23.028;2023-04-30T01:19:34;15.40;;;10.30;;
11344;SDS011;5727;42.600;23.028;2023-04-30T01:22:04;15.70;;;9.93;;
11344;SDS011;5727;42.600;23.028;2023-04-30T01:24:38;14.33;;;10.13;;
11344;SDS011;5727;42.600;23.028;2023-04-30T01:27:20;13.37;;;10.27;;
11344;SDS011;5727;42.600;23.028;2023-04-30T01:29:55;20.73;;;10.40;;
11344;SDS011;5727;42.600;23.028;2023-04-30T01:32:23;13.80;;;8.97;;
11344;SDS011;5727;42.600;23.028;2023-04-30T01:34:49;20.50;;;10.50;;
11344;SDS011;5727;42.600;23.028;2023-04-30T01:37:19;21.17;;;10.37;;
11344;SDS011;5727;42.600;23.028;2023-04-30T01:39:55;16.47;;;9.03;;
11344;SDS011;5727;42.600;23.028;2023-04-30T01:42:29;22.83;;;9.43;;
11344;SDS011;5727;42.600;23.028;2023-04-30T01:48:02;17.60;;;9.53;;
11344;SDS011;5727;42.600;23.028;2023-04-30T01:50:41;18.30;;;9.37;;
11344;SDS011;5727;42.600;23.028;2023-04-30T01:53:13;13.57;;;9.77;;
11344;SDS011;5727;42.600;23.028;2023-04-30T01:55:46;21.33;;;10.73;;
11344;SDS011;5727;42.600;23.028;2023-04-30T01:58:17;20.33;;;10.77;;
11344;SDS011;5727;42.600;23.028;2023-04-30T02:00:49;18.07;;;9.53;;
11344;SDS011;5727;42.600;23.028;2023-04-30T02:03:16;18.10;;;9.40;;
11344;SDS011;5727;42.600;23.028;2023-04-30T02:05:43;23.57;;;11.73;;
11344;SDS011;5727;42.600;23.028;2023-04-30T02:08:09;23.60;;;12.23;;
11344;SDS011;5727;42.600;23.028;2023-04-30T02:10:36;27.53;;;11.33;;
11344;SDS011;5727;42.600;23.028;2023-04-30T02:13:03;34.17;;;11.50;;
11344;SDS011;5727;42.600;23.028;2023-04-30T02:15:29;25.97;;;10.50;;
11344;SDS011;5727;42.600;23.028;2023-04-30T02:17:57;20.67;;;10.17;;
11344;SDS011;5727;42.600;23.028;2023-04-30T02:20:24;24.63;;;9.77;;
11344;SDS011;5727;42.600;23.028;2023-04-30T02:22:51;24.07;;;10.23;;
11344;SDS011;5727;42.600;23.028;2023-04-30T02:25:18;23.83;;;10.20;;
11344;SDS011;5727;42.600;23.028;2023-04-30T02:27:44;22.83;;;10.27;;
11344;SDS011;5727;42.600;23.028;2023-04-30T02:30:11;21.33;;;10.63;;
11344;SDS011;5727;42.600;23.028;2023-04-30T02:32:38;23.03;;;11.13;;
11344;SDS011;5727;42.600;23.028;2023-04-30T02:35:06;16.17;;;9.80;;
11344;SDS011;5727;42.600;23.028;2023-04-30T02:37:33;21.47;;;10.40;;
11344;SDS011;5727;42.600;23.028;2023-04-30T02:40:00;21.77;;;9.93;;
11344;SDS011;5727;42.600;23.028;2023-04-30T02:42:27;18.03;;;10.47;;
11344;SDS011;5727;42.600;23.028;2023-04-30T02:44:54;18.40;;;9.63;;
11344;SDS011;5727;42.600;23.028;2023-04-30T02:47:20;18.23;;;10.37;;
11344;SDS011;5727;42.600;23.028;2023-04-30T02:49:47;15.67;;;9.33;;
11344;SDS011;5727;42.600;23.028;2023-04-30T02:52:15;27.20;;;9.27;;
11344;SDS011;5727;42.600;23.028;2023-04-30T02:54:42;23.77;;;9.50;;
11344;SDS011;5727;42.600;23.028;2023-04-30T02:57:09;21.70;;;10.10;;
11344;SDS011;5727;42.600;23.028;2023-04-30T02:59:35;22.73;;;10.07;;
11344;SDS011;5727;42.600;23.028;2023-04-30T03:02:02;17.50;;;11.23;;
11344;SDS011;5727;42.600;23.028;2023-04-30T03:04:29;24.30;;;11.40;;
11344;SDS011;5727;42.600;23.028;2023-04-30T03:06:56;22.23;;;11.00;;
11344;SDS011;5727;42.600;23.028;2023-04-30T03:09:25;23.23;;;11.43;;
11344;SDS011;5727;42.600;23.028;2023-04-30T03:11:52;22.03;;;11.60;;
11344;SDS011;5727;42.600;23.028;2023-04-30T03:14:19;24.53;;;12.83;;
11344;SDS011;5727;42.600;23.028;2023-04-30T03:16:45;27.90;;;13.00;;
11344;SDS011;5727;42.600;23.028;2023-04-30T03:19:12;26.27;;;11.00;;
11344;SDS011;5727;42.600;23.028;2023-04-30T03:21:39;25.90;;;12.20;;
11344;SDS011;5727;42.600;23.028;2023-04-30T03:24:06;27.27;;;11.33;;
11344;SDS011;5727;42.600;23.028;2023-04-30T03:26:34;18.67;;;10.87;;
11344;SDS011;5727;42.600;23.028;2023-04-30T03:29:01;23.77;;;10.83;;
11344;SDS011;5727;42.600;23.028;2023-04-30T03:31:28;28.00;;;10.60;;
11344;SDS011;5727;42.600;23.028;2023-04-30T03:33:54;21.13;;;10.83;;
11344;SDS011;5727;42.600;23.028;2023-04-30T03:36:21;19.90;;;11.03;;
11344;SDS011;5727;42.600;23.028;2023-04-30T03:38:48;19.03;;;10.97;;
11344;SDS011;5727;42.600;23.028;2023-04-30T03:41:14;19.57;;;12.20;;
11344;SDS011;5727;42.600;23.028;2023-04-30T03:43:42;22.07;;;10.70;;
11344;SDS011;5727;42.600;23.028;2023-04-30T03:46:09;20.03;;;10.00;;
11344;SDS011;5727;42.600;23.028;2023-04-30T03:48:36;18.00;;;11.20;;
11344;SDS011;5727;42.600;23.028;2023-04-30T03:51:03;21.83;;;11.63;;
11344;SDS011;5727;42.600;23.028;2023-04-30T03:53:29;20.50;;;10.93;;
11344;SDS011;5727;42.600;23.028;2023-04-30T03:55:56;20.30;;;11.30;;
11344;SDS011;5727;42.600;23.028;2023-04-30T03:58:23;23.70;;;12.70;;
11344;SDS011;5727;42.600;23.028;2023-04-30T04:00:51;21.50;;;11.43;;
11344;SDS011;5727;42.600;23.028;2023-04-30T04:03:18;22.37;;;12.23;;
11344;SDS011;5727;42.600;23.028;2023-04-30T04:05:46;25.03;;;12.70;;
11344;SDS011;5727;42.600;23.028;2023-04-30T04:08:12;28.60;;;11.87;;
11344;SDS011;5727;42.600;23.028;2023-04-30T04:10:39;24.47;;;12.67;;
11344;SDS011;5727;42.600;23.028;2023-04-30T04:13:06;26.53;;;12.60;;
11344;SDS011;5727;42.600;23.028;2023-04-30T04:15:32;21.53;;;12.17;;
11344;SDS011;5727;42.600;23.028;2023-04-30T04:18:01;26.00;;;11.97;;
11344;SDS011;5727;42.600;23.028;2023-04-30T04:20:27;23.57;;;11.47;;
11344;SDS011;5727;42.600;23.028;2023-04-30T04:22:54;17.20;;;11.17;;
11344;SDS011;5727;42.600;23.028;2023-04-30T04:25:21;24.17;;;11.50;;
11344;SDS011;5727;42.600;23.028;2023-04-30T04:27:49;29.23;;;12.57;;
11344;SDS011;5727;42.600;23.028;2023-04-30T04:30:16;28.27;;;11.87;;
11344;SDS011;5727;42.600;23.028;2023-04-30T04:32:42;22.93;;;12.13;;
11344;SDS011;5727;42.600;23.028;2023-04-30T04:35:14;25.30;;;11.43;;
11344;SDS011;5727;42.600;23.028;2023-04-30T04:37:42;26.00;;;12.10;;
11344;SDS011;5727;42.600;23.028;2023-04-30T04:40:09;20.40;;;11.63;;
11344;SDS011;5727;42.600;23.028;2023-04-30T04:42:37;24.90;;;11.00;;
11344;SDS011;5727;42.600;23.028;2023-04-30T04:45:04;25.13;;;12.30;;
11344;SDS011;5727;42.600;23.028;2023-04-30T04:47:32;22.70;;;11.63;;
11344;SDS011;5727;42.600;23.028;2023-04-30T04:49:59;22.60;;;11.87;;
11344;SDS011;5727;42.600;23.028;2023-04-30T04:52:27;19.73;;;11.07;;
11344;SDS011;5727;42.600;23.028;2023-04-30T04:54:54;22.13;;;11.43;;
11344;SDS011;5727;42.600;23.028;2023-04-30T04:57:21;18.93;;;11.33;;
11344;SDS011;5727;42.600;23.028;2023-04-30T04:59:48;21.70;;;10.60;;
11344;SDS011;5727;42.600;23.028;2023-04-30T05:02:14;22.73;;;10.30;;
11344;SDS011;5727;42.600;23.028;2023-04-30T05:04:41;20.77;;;10.40;;
11344;SDS011;5727;42.600;23.028;2023-04-30T05:07:08;26.33;;;11.73;;
11344;SDS011;5727;42.600;23.028;2023-04-30T05:09:36;18.07;;;11.30;;
11344;SDS011;5727;42.600;23.028;2023-04-30T05:12:04;20.57;;;12.87;;
11344;SDS011;5727;42.600;23.028;2023-04-30T05:14:31;21.63;;;12.93;;
11344;SDS011;5727;42.600;23.028;2023-04-30T05:16:58;22.07;;;12.87;;
11344;SDS011;5727;42.600;23.028;2023-04-30T05:19:24;28.30;;;13.97;;
11344;SDS011;5727;42.600;23.028;2023-04-30T05:21:51;34.90;;;14.53;;
11344;SDS011;5727;42.600;23.028;2023-04-30T05:24:18;24.70;;;14.07;;
11344;SDS011;5727;42.600;23.028;2023-04-30T05:26:46;26.07;;;14.63;;
11344;SDS011;5727;42.600;23.028;2023-04-30T05:29:12;24.40;;;14.80;;
11344;SDS011;5727;42.600;23.028;2023-04-30T05:31:39;24.23;;;13.90;;
11344;SDS011;5727;42.600;23.028;2023-04-30T05:34:06;29.50;;;15.90;;
11344;SDS011;5727;42.600;23.028;2023-04-30T05:36:33;29.13;;;14.80;;
11344;SDS011;5727;42.600;23.028;2023-04-30T05:39:00;28.23;;;14.90;;
11344;SDS011;5727;42.600;23.028;2023-04-30T05:41:27;18.30;;;11.00;;
11344;SDS011;5727;42.600;23.028;2023-04-30T05:43:55;21.27;;;11.37;;
11344;SDS011;5727;42.600;23.028;2023-04-30T05:46:22;20.77;;;10.60;;
11344;SDS011;5727;42.600;23.028;2023-04-30T05:48:48;22.00;;;11.47;;
11344;SDS011;5727;42.600;23.028;2023-04-30T05:51:15;23.63;;;12.33;;
11344;SDS011;5727;42.600;23.028;2023-04-30T05:53:42;28.73;;;13.00;;
11344;SDS011;5727;42.600;23.028;2023-04-30T05:56:09;22.07;;;12.30;;
11344;SDS011;5727;42.600;23.028;2023-04-30T05:58:36;20.93;;;12.83;;
11344;SDS011;5727;42.600;23.028;2023-04-30T06:01:05;18.17;;;14.23;;
11344;SDS011;5727;42.600;23.028;2023-04-30T06:03:35;21.87;;;12.77;;
11344;SDS011;5727;42.600;23.028;2023-04-30T06:06:02;26.10;;;13.87;;
11344;SDS011;5727;42.600;23.028;2023-04-30T06:08:29;20.83;;;13.13;;
11344;SDS011;5727;42.600;23.028;2023-04-30T06:10:59;26.00;;;14.87;;
11344;SDS011;5727;42.600;23.028;2023-04-30T06:13:27;23.90;;;15.97;;
11344;SDS011;5727;42.600;23.028;2023-04-30T06:15:54;26.37;;;15.60;;
11344;SDS011;5727;42.600;23.028;2023-04-30T06:18:22;27.70;;;15.73;;
11344;SDS011;5727;42.600;23.028;2023-04-30T06:20:49;20.53;;;13.33;;
11344;SDS011;5727;42.600;23.028;2023-04-30T06:23:16;25.50;;;11.57;;
11344;SDS011;5727;42.600;23.028;2023-04-30T06:25:42;16.37;;;10.90;;
11344;SDS011;5727;42.600;23.028;2023-04-30T06:28:09;24.53;;;11.93;;
11344;SDS011;5727;42.600;23.028;2023-04-30T06:30:36;24.13;;;11.80;;
11344;SDS011;5727;42.600;23.028;2023-04-30T06:33:03;21.33;;;11.67;;
11344;SDS011;5727;42.600;23.028;2023-04-30T06:35:31;16.30;;;9.47;;
11344;SDS011;5727;42.600;23.028;2023-04-30T06:37:58;16.43;;;9.77;;
11344;SDS011;5727;42.600;23.028;2023-04-30T06:40:25;17.77;;;9.93;;
11344;SDS011;5727;42.600;23.028;2023-04-30T06:42:51;20.27;;;10.03;;
11344;SDS011;5727;42.600;23.028;2023-04-30T06:45:18;15.23;;;9.80;;
11344;SDS011;5727;42.600;23.028;2023-04-30T06:47:45;20.70;;;10.20;;
11344;SDS011;5727;42.600;23.028;2023-04-30T06:50:13;18.43;;;9.97;;
11344;SDS011;5727;42.600;23.028;2023-04-30T06:52:41;19.83;;;9.67;;
11344;SDS011;5727;42.600;23.028;2023-04-30T06:55:08;11.93;;;8.43;;
11344;SDS011;5727;42.600;23.028;2023-04-30T06:57:35;11.87;;;8.27;;
11344;SDS011;5727;42.600;23.028;2023-04-30T07:00:02;12.17;;;8.03;;
11344;SDS011;5727;42.600;23.028;2023-04-30T07:02:30;11.50;;;7.10;;
11344;SDS011;5727;42.600;23.028;2023-04-30T07:04:56;11.97;;;6.43;;
11344;SDS011;5727;42.600;23.028;2023-04-30T07:07:24;9.00;;;6.73;;
11344;SDS011;5727;42.600;23.028;2023-04-30T07:09:52;13.53;;;6.67;;
11344;SDS011;5727;42.600;23.028;2023-04-30T07:12:19;10.00;;;4.87;;
11344;SDS011;5727;42.600;23.028;2023-04-30T07:14:46;9.73;;;4.93;;
11344;SDS011;5727;42.600;23.028;2023-04-30T07:17:13;4.97;;;3.80;;
11344;SDS011;5727;42.600;23.028;2023-04-30T07:19:39;4.97;;;4.17;;
11344;SDS011;5727;42.600;23.028;2023-04-30T07:22:06;4.57;;;3.60;;
11344;SDS011;5727;42.600;23.028;2023-04-30T07:24:33;7.63;;;4.00;;
11344;SDS011;5727;42.600;23.028;2023-04-30T07:27:01;5.80;;;3.77;;
11344;SDS011;5727;42.600;23.028;2023-04-30T07:29:28;6.40;;;3.87;;
11344;SDS011;5727;42.600;23.028;2023-04-30T07:31:55;5.10;;;3.60;;
11344;SDS011;5727;42.600;23.028;2023-04-30T07:34:22;4.23;;;3.70;;
11344;SDS011;5727;42.600;23.028;2023-04-30T07:36:50;4.13;;;3.40;;
11344;SDS011;5727;42.600;23.028;2023-04-30T07:39:17;6.60;;;4.57;;
11344;SDS011;5727;42.600;23.028;2023-04-30T07:41:44;6.13;;;3.90;;
11344;SDS011;5727;42.600;23.028;2023-04-30T07:44:12;5.00;;;3.80;;
11344;SDS011;5727;42.600;23.028;2023-04-30T07:46:38;5.17;;;4.30;;
11344;SDS011;5727;42.600;23.028;2023-04-30T07:49:07;5.07;;;3.57;;
11344;SDS011;5727;42.600;23.028;2023-04-30T07:51:33;3.97;;;3.53;;
11344;SDS011;5727;42.600;23.028;2023-04-30T07:54:01;4.30;;;3.90;;
11344;SDS011;5727;42.600;23.028;2023-04-30T07:56:28;7.40;;;4.53;;
11344;SDS011;5727;42.600;23.028;2023-04-30T07:58:55;4.17;;;3.67;;
11344;SDS011;5727;42.600;23.028;2023-04-30T08:01:23;5.83;;;4.07;;
11344;SDS011;5727;42.600;23.028;2023-04-30T08:03:50;7.67;;;4.33;;
11344;SDS011;5727;42.600;23.028;2023-04-30T08:06:17;6.17;;;4.43;;
11344;SDS011;5727;42.600;23.028;2023-04-30T08:08:44;4.63;;;3.73;;
11344;SDS011;5727;42.600;23.028;2023-04-30T08:11:11;5.90;;;3.80;;
11344;SDS011;5727;42.600;23.028;2023-04-30T08:13:38;5.37;;;4.57;;
11344;SDS011;5727;42.600;23.028;2023-04-30T08:16:04;6.60;;;4.57;;
11344;SDS011;5727;42.600;23.028;2023-04-30T08:18:33;4.27;;;3.57;;
11344;SDS011;5727;42.600;23.028;2023-04-30T08:21:01;5.73;;;3.77;;
11344;SDS011;5727;42.600;23.028;2023-04-30T08:23:31;6.63;;;3.93;;
11344;SDS011;5727;42.600;23.028;2023-04-30T08:25:58;4.13;;;3.57;;
11344;SDS011;5727;42.600;23.028;2023-04-30T08:28:25;6.27;;;3.90;;
11344;SDS011;5727;42.600;23.028;2023-04-30T08:30:52;4.50;;;3.73;;
11344;SDS011;5727;42.600;23.028;2023-04-30T08:33:19;4.50;;;3.83;;
11344;SDS011;5727;42.600;23.028;2023-04-30T08:35:47;6.27;;;3.77;;
11344;SDS011;5727;42.600;23.028;2023-04-30T08:38:13;6.20;;;3.47;;
11344;SDS011;5727;42.600;23.028;2023-04-30T08:40:40;6.87;;;4.20;;
11344;SDS011;5727;42.600;23.028;2023-04-30T08:43:13;5.63;;;3.80;;
11344;SDS011;5727;42.600;23.028;2023-04-30T08:45:41;5.00;;;3.83;;
11344;SDS011;5727;42.600;23.028;2023-04-30T08:48:08;5.43;;;4.03;;
11344;SDS011;5727;42.600;23.028;2023-04-30T08:50:36;5.73;;;3.70;;
11344;SDS011;5727;42.600;23.028;2023-04-30T08:53:04;4.37;;;3.57;;
11344;SDS011;5727;42.600;23.028;2023-04-30T08:55:33;4.00;;;3.60;;
11344;SDS011;5727;42.600;23.028;2023-04-30T08:57:59;6.80;;;4.93;;
11344;SDS011;5727;42.600;23.028;2023-04-30T09:00:26;5.27;;;3.43;;
11344;SDS011;5727;42.600;23.028;2023-04-30T09:02:53;4.70;;;3.53;;
11344;SDS011;5727;42.600;23.028;2023-04-30T09:05:20;4.07;;;3.00;;
11344;SDS011;5727;42.600;23.028;2023-04-30T09:07:46;3.70;;;2.83;;
11344;SDS011;5727;42.600;23.028;2023-04-30T09:10:17;3.10;;;2.80;;
11344;SDS011;5727;42.600;23.028;2023-04-30T09:12:53;3.17;;;2.97;;
11344;SDS011;5727;42.600;23.028;2023-04-30T09:15:24;3.70;;;2.80;;
11344;SDS011;5727;42.600;23.028;2023-04-30T09:17:54;3.80;;;3.30;;
11344;SDS011;5727;42.600;23.028;2023-04-30T09:20:31;3.60;;;2.70;;
11344;SDS011;5727;42.600;23.028;2023-04-30T09:23:04;3.23;;;2.93;;
11344;SDS011;5727;42.600;23.028;2023-04-30T09:25:38;3.30;;;2.53;;
11344;SDS011;5727;42.600;23.028;2023-04-30T09:28:06;3.90;;;2.83;;
11344;SDS011;5727;42.600;23.028;2023-04-30T09:30:35;3.50;;;3.17;;
11344;SDS011;5727;42.600;23.028;2023-04-30T09:33:02;2.77;;;2.53;;
11344;SDS011;5727;42.600;23.028;2023-04-30T09:35:29;3.30;;;3.00;;
11344;SDS011;5727;42.600;23.028;2023-04-30T09:37:58;3.77;;;2.70;;
11344;SDS011;5727;42.600;23.028;2023-04-30T09:40:34;2.87;;;2.63;;
11344;SDS011;5727;42.600;23.028;2023-04-30T09:43:05;3.40;;;3.10;;
11344;SDS011;5727;42.600;23.028;2023-04-30T09:45:40;5.03;;;3.00;;
11344;SDS011;5727;42.600;23.028;2023-04-30T09:48:07;4.03;;;3.30;;
11344;SDS011;5727;42.600;23.028;2023-04-30T09:50:38;3.60;;;3.30;;
11344;SDS011;5727;42.600;23.028;2023-04-30T09:53:06;4.80;;;3.10;;
11344;SDS011;5727;42.600;23.028;2023-04-30T09:55:34;3.33;;;3.03;;
11344;SDS011;5727;42.600;23.028;2023-04-30T09:58:02;3.97;;;2.90;;
11344;SDS011;5727;42.600;23.028;2023-04-30T10:00:32;3.17;;;2.87;;
11344;SDS011;5727;42.600;23.028;2023-04-30T10:03:00;2.93;;;2.70;;
11344;SDS011;5727;42.600;23.028;2023-04-30T10:05:33;3.10;;;2.80;;
11344;SDS011;5727;42.600;23.028;2023-04-30T10:08:03;3.10;;;2.87;;
11344;SDS011;5727;42.600;23.028;2023-04-30T10:10:32;2.90;;;2.30;;
11344;SDS011;5727;42.600;23.028;2023-04-30T10:13:02;3.23;;;2.33;;
11344;SDS011;5727;42.600;23.028;2023-04-30T10:15:34;3.60;;;2.90;;
11344;SDS011;5727;42.600;23.028;2023-04-30T10:18:04;5.80;;;2.93;;
11344;SDS011;5727;42.600;23.028;2023-04-30T10:20:34;3.80;;;3.43;;
11344;SDS011;5727;42.600;23.028;2023-04-30T10:23:02;4.67;;;3.33;;
11344;SDS011;5727;42.600;23.028;2023-04-30T10:25:29;4.63;;;3.30;;
11344;SDS011;5727;42.600;23.028;2023-04-30T10:27:58;4.33;;;3.70;;
11344;SDS011;5727;42.600;23.028;2023-04-30T10:30:24;4.20;;;3.43;;
11344;SDS011;5727;42.600;23.028;2023-04-30T10:32:55;3.60;;;3.33;;
11344;SDS011;5727;42.600;23.028;2023-04-30T10:35:32;4.07;;;3.77;;
11344;SDS011;5727;42.600;23.028;2023-04-30T10:38:06;3.70;;;3.17;;
11344;SDS011;5727;42.600;23.028;2023-04-30T10:40:38;4.00;;;3.37;;
11344;SDS011;5727;42.600;23.028;2023-04-30T10:43:04;4.93;;;2.93;;
11344;SDS011;5727;42.600;23.028;2023-04-30T10:45:35;4.50;;;3.13;;
11344;SDS011;5727;42.600;23.028;2023-04-30T10:48:04;4.20;;;3.43;;
11344;SDS011;5727;42.600;23.028;2023-04-30T10:50:31;3.57;;;3.00;;
11344;SDS011;5727;42.600;23.028;2023-04-30T10:53:01;5.93;;;3.40;;
11344;SDS011;5727;42.600;23.028;2023-04-30T10:55:29;3.73;;;3.43;;
11344;SDS011;5727;42.600;23.028;2023-04-30T10:57:56;3.83;;;3.30;;
11344;SDS011;5727;42.600;23.028;2023-04-30T11:00:24;3.13;;;2.80;;
11344;SDS011;5727;42.600;23.028;2023-04-30T11:02:55;3.13;;;2.90;;
11344;SDS011;5727;42.600;23.028;2023-04-30T11:05:33;3.60;;;3.30;;
11344;SDS011;5727;42.600;23.028;2023-04-30T11:08:01;4.57;;;4.17;;
11344;SDS011;5727;42.600;23.028;2023-04-30T11:10:31;4.73;;;3.93;;
11344;SDS011;5727;42.600;23.028;2023-04-30T11:13:02;4.57;;;4.17;;
11344;SDS011;5727;42.600;23.028;2023-04-30T11:15:32;5.97;;;4.03;;
11344;SDS011;5727;42.600;23.028;2023-04-30T11:18:01;3.20;;;3.00;;
11344;SDS011;5727;42.600;23.028;2023-04-30T11:20:28;4.37;;;3.47;;
11344;SDS011;5727;42.600;23.028;2023-04-30T11:23:09;3.60;;;3.30;;
11344;SDS011;5727;42.600;23.028;2023-04-30T11:25:40;4.37;;;3.97;;
11344;SDS011;5727;42.600;23.028;2023-04-30T11:28:07;4.70;;;4.10;;
11344;SDS011;5727;42.600;23.028;2023-04-30T11:30:38;4.53;;;3.43;;
11344;SDS011;5727;42.600;23.028;2023-04-30T11:33:05;3.70;;;2.60;;
11344;SDS011;5727;42.600;23.028;2023-04-30T11:35:32;3.37;;;3.07;;
11344;SDS011;5727;42.600;23.028;2023-04-30T11:38:00;2.50;;;2.30;;
11344;SDS011;5727;42.600;23.028;2023-04-30T11:40:30;3.07;;;2.87;;
11344;SDS011;5727;42.600;23.028;2023-04-30T11:43:00;2.93;;;2.63;;
11344;SDS011;5727;42.600;23.028;2023-04-30T11:45:27;2.87;;;2.00;;
11344;SDS011;5727;42.600;23.028;2023-04-30T11:47:54;4.27;;;2.40;;
11344;SDS011;5727;42.600;23.028;2023-04-30T11:50:23;2.80;;;2.33;;
11344;SDS011;5727;42.600;23.028;2023-04-30T11:52:53;3.83;;;2.47;;
11344;SDS011;5727;42.600;23.028;2023-04-30T11:55:21;4.63;;;2.87;;
11344;SDS011;5727;42.600;23.028;2023-04-30T11:57:51;2.67;;;2.47;;
11344;SDS011;5727;42.600;23.028;2023-04-30T12:00:21;3.10;;;2.63;;
11344;SDS011;5727;42.600;23.028;2023-04-30T12:02:54;3.70;;;2.80;;
11344;SDS011;5727;42.600;23.028;2023-04-30T12:05:22;2.47;;;1.97;;
11344;SDS011;5727;42.600;23.028;2023-04-30T12:07:53;4.13;;;1.90;;
11344;SDS011;5727;42.600;23.028;2023-04-30T12:10:22;2.37;;;2.07;;
11344;SDS011;5727;42.600;23.028;2023-04-30T12:12:50;3.17;;;2.07;;
11344;SDS011;5727;42.600;23.028;2023-04-30T12:15:19;2.83;;;1.60;;
11344;SDS011;5727;42.600;23.028;2023-04-30T12:17:50;2.13;;;1.87;;
11344;SDS011;5727;42.600;23.028;2023-04-30T12:20:18;3.70;;;1.53;;
11344;SDS011;5727;42.600;23.028;2023-04-30T12:22:46;3.07;;;1.83;;
11344;SDS011;5727;42.600;23.028;2023-04-30T12:25:16;2.03;;;1.47;;
11344;SDS011;5727;42.600;23.028;2023-04-30T12:27:45;1.60;;;1.50;;
11344;SDS011;5727;42.600;23.028;2023-04-30T12:30:17;3.13;;;1.53;;
11344;SDS011;5727;42.600;23.028;2023-04-30T12:32:48;3.53;;;2.17;;
11344;SDS011;5727;42.600;23.028;2023-04-30T12:35:16;2.17;;;1.80;;
11344;SDS011;5727;42.600;23.028;2023-04-30T12:37:44;2.27;;;1.87;;
11344;SDS011;5727;42.600;23.028;2023-04-30T12:40:12;1.67;;;1.57;;
11344;SDS011;5727;42.600;23.028;2023-04-30T12:42:40;1.70;;;1.33;;
11344;SDS011;5727;42.600;23.028;2023-04-30T12:45:08;2.17;;;1.30;;
11344;SDS011;5727;42.600;23.028;2023-04-30T12:47:38;1.53;;;1.20;;
11344;SDS011;5727;42.600;23.028;2023-04-30T12:50:07;1.63;;;1.30;;
11344;SDS011;5727;42.600;23.028;2023-04-30T12:52:35;2.70;;;1.57;;
11344;SDS011;5727;42.600;23.028;2023-04-30T12:55:15;1.63;;;1.40;;
11344;SDS011;5727;42.600;23.028;2023-04-30T13:00:29;2.27;;;1.83;;
11344;SDS011;5727;42.600;23.028;2023-04-30T13:03:09;2.17;;;1.97;;
11344;SDS011;5727;42.600;23.028;2023-04-30T13:05:36;2.37;;;1.93;;
11344;SDS011;5727;42.600;23.028;2023-04-30T13:08:02;2.80;;;1.93;;
11344;SDS011;5727;42.600;23.028;2023-04-30T13:10:30;2.40;;;2.20;;
11344;SDS011;5727;42.600;23.028;2023-04-30T13:12:57;3.70;;;2.37;;
11344;SDS011;5727;42.600;23.028;2023-04-30T13:15:24;4.77;;;2.63;;
11344;SDS011;5727;42.600;23.028;2023-04-30T13:17:51;2.40;;;1.90;;
11344;SDS011;5727;42.600;23.028;2023-04-30T13:20:20;2.87;;;1.87;;
11344;SDS011;5727;42.600;23.028;2023-04-30T13:22:46;3.00;;;2.00;;
11344;SDS011;5727;42.600;23.028;2023-04-30T13:25:13;3.13;;;1.90;;
11344;SDS011;5727;42.600;23.028;2023-04-30T13:27:41;2.60;;;2.10;;
11344;SDS011;5727;42.600;23.028;2023-04-30T13:30:08;2.07;;;1.53;;
11344;SDS011;5727;42.600;23.028;2023-04-30T13:32:36;1.70;;;1.50;;
11344;SDS011;5727;42.600;23.028;2023-04-30T13:35:03;1.50;;;1.40;;
11344;SDS011;5727;42.600;23.028;2023-04-30T13:37:31;4.00;;;1.47;;
11344;SDS011;5727;42.600;23.028;2023-04-30T13:39:59;4.23;;;1.70;;
11344;SDS011;5727;42.600;23.028;2023-04-30T13:42:27;1.93;;;1.60;;
11344;SDS011;5727;42.600;23.028;2023-04-30T13:44:54;2.37;;;1.37;;
11344;SDS011;5727;42.600;23.028;2023-04-30T13:47:21;1.73;;;1.40;;
11344;SDS011;5727;42.600;23.028;2023-04-30T13:49:48;1.60;;;1.10;;
11344;SDS011;5727;42.600;23.028;2023-04-30T13:52:15;2.27;;;1.47;;
11344;SDS011;5727;42.600;23.028;2023-04-30T13:54:43;2.83;;;1.07;;
11344;SDS011;5727;42.600;23.028;2023-04-30T13:57:10;2.87;;;1.33;;
11344;SDS011;5727;42.600;23.028;2023-04-30T13:59:37;5.27;;;1.77;;
11344;SDS011;5727;42.600;23.028;2023-04-30T14:02:03;6.03;;;2.33;;
11344;SDS011;5727;42.600;23.028;2023-04-30T14:04:30;7.07;;;2.60;;
11344;SDS011;5727;42.600;23.028;2023-04-30T14:06:57;6.90;;;1.97;;
11344;SDS011;5727;42.600;23.028;2023-04-30T14:09:24;5.63;;;1.83;;
11344;SDS011;5727;42.600;23.028;2023-04-30T14:11:52;6.20;;;2.20;;
11344;SDS011;5727;42.600;23.028;2023-04-30T14:14:22;6.83;;;1.50;;
11344;SDS011;5727;42.600;23.028;2023-04-30T14:16:48;4.83;;;1.47;;
11344;SDS011;5727;42.600;23.028;2023-04-30T14:19:15;6.27;;;1.20;;
11344;SDS011;5727;42.600;23.028;2023-04-30T14:21:42;6.43;;;1.70;;
11344;SDS011;5727;42.600;23.028;2023-04-30T14:24:09;4.30;;;1.23;;
11344;SDS011;5727;42.600;23.028;2023-04-30T14:26:36;6.20;;;1.47;;
11344;SDS011;5727;42.600;23.028;2023-04-30T14:29:06;2.63;;;1.07;;
11344;SDS011;5727;42.600;23.028;2023-04-30T14:31:32;2.10;;;1.43;;
11344;SDS011;5727;42.600;23.028;2023-04-30T14:33:59;5.43;;;1.30;;
11344;SDS011;5727;42.600;23.028;2023-04-30T14:36:26;5.10;;;1.10;;
11344;SDS011;5727;42.600;23.028;2023-04-30T14:38:53;2.13;;;1.70;;
11344;SDS011;5727;42.600;23.028;2023-04-30T14:41:20;4.17;;;1.70;;
11344;SDS011;5727;42.600;23.028;2023-04-30T14:43:46;2.67;;;1.30;;
11344;SDS011;5727;42.600;23.028;2023-04-30T14:46:15;2.87;;;1.20;;